Time;durP1;ratioP1;P1;durP2;ratioP2;P2;SDS_P1;SDS_P2;PMS_P1;PMS_P2;Temp;Humidity;BMP_temperature;BMP_pressure;BME280_temperature;BME280_humidity;BME280_pressure;Samples;Min_cycle;Max_cycle;Signal;HPM_P1;HPM_P2
2023/06/09 00:01:35;;;;;;;20.30;5.18;;;23.20;71.30;;;;;;5035796;28;20029;-54
2023/06/09 00:04:02;;;;;;;15.98;5.60;;;23.20;71.40;;;;;;5040601;28;20025;-54
2023/06/09 00:06:30;;;;;;;16.35;5.32;;;23.10;71.30;;;;;;5058514;28;20076;-54
2023/06/09 00:08:57;;;;;;;16.85;5.63;;;23.10;71.30;;;;;;5044210;28;20029;-54
2023/06/09 00:11:22;;;;;;;14.63;5.05;;;23.10;71.40;;;;;;5026335;28;20034;-54
2023/06/09 00:13:48;;;;;;;17.08;4.72;;;23.00;71.40;;;;;;5046203;28;20112;-54
2023/06/09 00:16:15;;;;;;;19.02;5.32;;;23.00;71.50;;;;;;5044195;28;20333;-54
2023/06/09 00:18:41;;;;;;;12.63;4.90;;;23.00;71.50;;;;;;5034004;28;20030;-54
2023/06/09 00:21:07;;;;;;;8.15;4.47;;;23.00;71.40;;;;;;5042642;28;20075;-54
2023/06/09 00:23:32;;;;;;;12.45;4.85;;;23.00;71.50;;;;;;5029428;28;20030;-54
2023/06/09 00:25:58;;;;;;;13.77;4.85;;;23.00;71.50;;;;;;5027159;28;20030;-54
2023/06/09 00:28:24;;;;;;;12.80;5.35;;;22.90;72.10;;;;;;5042728;28;20025;-54
2023/06/09 00:30:50;;;;;;;8.73;4.47;;;22.90;71.40;;;;;;5066104;28;20021;-54
2023/06/09 00:33:15;;;;;;;8.35;4.32;;;22.90;71.40;;;;;;5036052;28;20029;-54
2023/06/09 00:35:41;;;;;;;7.68;4.47;;;22.90;71.50;;;;;;5045918;28;20124;-54
2023/06/09 00:38:06;;;;;;;8.73;4.80;;;22.90;71.50;;;;;;5044377;28;20029;-54
2023/06/09 00:40:32;;;;;;;10.95;4.63;;;22.80;71.50;;;;;;5047324;28;20029;-54
2023/06/09 00:42:57;;;;;;;10.32;4.55;;;22.80;71.60;;;;;;5045571;28;20033;-53
2023/06/09 00:45:23;;;;;;;13.65;4.25;;;22.80;71.60;;;;;;5041714;28;20116;-54
2023/06/09 00:47:49;;;;;;;11.65;4.00;;;22.80;71.60;;;;;;5065750;28;20384;-54
2023/06/09 00:50:16;;;;;;;9.35;4.20;;;22.80;71.70;;;;;;5049047;28;20040;-54
2023/06/09 00:52:42;;;;;;;8.82;4.10;;;22.70;71.70;;;;;;5049053;28;20032;-54
2023/06/09 00:55:08;;;;;;;7.07;3.88;;;22.70;71.90;;;;;;5059872;28;20034;-54
2023/06/09 00:57:33;;;;;;;8.23;4.30;;;22.60;71.90;;;;;;5039835;28;20025;-54
2023/06/09 01:00:00;;;;;;;10.30;4.80;;;22.60;72.10;;;;;;5031389;28;20089;-54
2023/06/09 01:02:26;;;;;;;6.07;4.43;;;22.60;72.10;;;;;;5027947;28;20418;-54
2023/06/09 01:04:51;;;;;;;10.93;4.57;;;22.50;72.10;;;;;;5025214;28;20040;-54
2023/06/09 01:07:41;;;;;;;7.32;4.25;;;22.50;72.10;;;;;;5025351;28;20026;-54
2023/06/09 01:10:22;;;;;;;7.60;4.18;;;22.50;72.20;;;;;;5025348;28;20097;-54
2023/06/09 01:13:21;;;;;;;6.22;4.10;;;22.50;72.30;;;;;;5024398;28;20038;-54
2023/06/09 01:15:49;;;;;;;6.75;3.85;;;22.50;72.20;;;;;;5008892;28;20492;-54
2023/06/09 01:18:15;;;;;;;5.30;3.75;;;22.40;72.10;;;;;;5028233;28;20029;-54
2023/06/09 01:20:45;;;;;;;6.40;4.05;;;22.50;72.20;;;;;;5026266;28;20057;-54
2023/06/09 01:23:38;;;;;;;9.85;3.70;;;22.50;72.20;;;;;;5045503;28;20098;-54
2023/06/09 01:26:04;;;;;;;8.57;3.95;;;22.40;72.20;;;;;;5046265;28;20044;-54
2023/06/09 01:28:30;;;;;;;5.60;3.85;;;22.40;72.20;;;;;;5043144;28;20017;-54
2023/06/09 01:30:56;;;;;;;7.45;3.58;;;22.40;72.30;;;;;;5034993;28;20026;-54
2023/06/09 01:33:22;;;;;;;8.70;3.67;;;22.40;72.40;;;;;;5029727;28;20025;-53
2023/06/09 01:35:48;;;;;;;6.82;3.38;;;22.30;72.40;;;;;;5019695;28;20034;-54
2023/06/09 01:38:14;;;;;;;5.97;3.90;;;22.30;72.40;;;;;;5034219;28;20064;-54
2023/06/09 01:40:40;;;;;;;12.80;3.90;;;22.30;72.50;;;;;;5041854;28;20045;-54
2023/06/09 01:43:06;;;;;;;6.55;3.40;;;22.20;73.10;;;;;;5008446;28;20358;-54
2023/06/09 01:45:31;;;;;;;6.97;4.15;;;22.20;72.50;;;;;;5031217;28;20061;-54
2023/06/09 01:47:57;;;;;;;6.07;3.85;;;22.20;72.60;;;;;;5024806;28;20018;-54
2023/06/09 01:50:33;;;;;;;6.45;3.75;;;22.20;72.60;;;;;;5044667;28;20026;-54
2023/06/09 01:53:05;;;;;;;7.72;3.72;;;22.10;72.70;;;;;;5043405;28;20029;-54
2023/06/09 01:55:34;;;;;;;6.65;3.47;;;22.10;72.80;;;;;;5040878;28;20034;-54
2023/06/09 01:58:03;;;;;;;5.32;3.70;;;22.10;72.80;;;;;;5024401;28;20036;-54
2023/06/09 02:00:28;;;;;;;5.93;3.90;;;22.10;72.90;;;;;;5024174;28;20092;-54
2023/06/09 02:02:56;;;;;;;8.30;3.50;;;22.10;72.90;;;;;;5040594;28;20466;-54
2023/06/09 02:05:22;;;;;;;4.38;3.45;;;22.00;72.90;;;;;;5041059;28;20026;-54
2023/06/09 02:07:48;;;;;;;4.97;3.80;;;22.10;72.90;;;;;;5028260;28;20021;-54
2023/06/09 02:10:14;;;;;;;11.30;3.63;;;22.00;73.00;;;;;;5042378;28;20496;-54
2023/06/09 02:12:40;;;;;;;7.80;3.80;;;22.00;73.10;;;;;;5032507;28;20042;-54
2023/06/09 02:15:06;;;;;;;6.63;3.75;;;22.00;73.10;;;;;;5039563;28;20033;-54
2023/06/09 02:17:34;;;;;;;6.65;4.30;;;22.00;73.00;;;;;;5024879;28;20038;-54
2023/06/09 02:20:00;;;;;;;7.25;4.00;;;21.90;73.10;;;;;;5024575;28;20021;-54
2023/06/09 02:22:26;;;;;;;7.43;4.50;;;21.90;73.40;;;;;;5024428;28;20041;-54
2023/06/09 02:24:51;;;;;;;5.20;3.95;;;21.90;73.50;;;;;;5033431;28;20021;-54
2023/06/09 02:27:17;;;;;;;7.82;3.97;;;21.90;73.50;;;;;;5043529;28;20132;-54
2023/06/09 02:29:43;;;;;;;6.53;3.83;;;21.80;73.30;;;;;;5045172;28;20073;-54
2023/06/09 02:32:08;;;;;;;6.18;4.05;;;21.80;73.50;;;;;;5027003;28;20051;-54
2023/06/09 02:34:34;;;;;;;6.47;3.63;;;21.80;73.60;;;;;;5038291;28;20037;-54
2023/06/09 02:37:00;;;;;;;5.82;3.90;;;21.80;74.40;;;;;;5049754;28;20093;-54
2023/06/09 02:39:26;;;;;;;6.32;4.18;;;21.80;73.80;;;;;;5043712;28;20029;-54
2023/06/09 02:41:52;;;;;;;7.07;3.92;;;21.70;74.50;;;;;;5043227;28;20087;-54
2023/06/09 02:44:17;;;;;;;6.72;4.22;;;21.70;73.90;;;;;;5042959;28;20073;-54
2023/06/09 02:46:44;;;;;;;6.82;3.80;;;21.70;74.60;;;;;;5043828;28;20034;-54
2023/06/09 02:49:10;;;;;;;5.68;4.00;;;21.70;74.00;;;;;;5036757;28;20029;-54
2023/06/09 02:51:36;;;;;;;7.28;4.18;;;21.70;74.10;;;;;;5047076;28;20034;-54
2023/06/09 02:54:02;;;;;;;4.82;3.60;;;21.60;74.00;;;;;;5024895;28;20128;-53
2023/06/09 02:56:27;;;;;;;5.28;4.30;;;21.60;74.00;;;;;;5029158;28;20037;-54
2023/06/09 02:58:53;;;;;;;5.20;4.10;;;21.70;74.10;;;;;;5008476;28;20026;-54
2023/06/09 03:01:20;;;;;;;4.82;4.28;;;21.70;74.10;;;;;;5037183;28;20089;-54
2023/06/09 03:03:46;;;;;;;7.80;4.20;;;21.70;74.10;;;;;;5043225;28;20056;-54
2023/06/09 03:06:13;;;;;;;8.23;4.13;;;21.70;74.10;;;;;;5030996;28;20352;-54
2023/06/09 03:08:39;;;;;;;4.50;3.92;;;21.70;74.10;;;;;;5023622;28;20036;-54
2023/06/09 03:11:05;;;;;;;4.97;4.28;;;21.70;74.10;;;;;;5024458;28;20041;-54
2023/06/09 03:13:30;;;;;;;5.28;4.25;;;21.60;74.10;;;;;;5053802;28;20030;-54
2023/06/09 03:15:57;;;;;;;4.50;4.10;;;21.60;74.30;;;;;;5042967;28;20037;-54
2023/06/09 03:18:22;;;;;;;5.03;4.40;;;21.60;74.20;;;;;;5042910;28;20025;-54
2023/06/09 03:20:48;;;;;;;4.88;3.78;;;21.60;74.30;;;;;;5041534;28;20029;-54
2023/06/09 03:23:14;;;;;;;11.35;4.97;;;21.60;74.50;;;;;;5047661;28;20041;-54
2023/06/09 03:25:40;;;;;;;10.32;4.22;;;21.50;74.50;;;;;;5046649;28;20486;-54
2023/06/09 03:28:06;;;;;;;6.68;4.93;;;21.50;74.50;;;;;;5047890;28;20017;-54
2023/06/09 03:30:31;;;;;;;14.52;6.43;;;21.50;74.60;;;;;;5047720;28;20462;-54
2023/06/09 03:32:57;;;;;;;101.22;14.68;;;21.50;74.80;;;;;;5042059;28;20025;-54
2023/06/09 03:35:22;;;;;;;94.00;14.57;;;21.40;74.80;;;;;;5042934;28;20022;-54
2023/06/09 03:37:48;;;;;;;30.38;7.72;;;21.40;75.00;;;;;;5028571;28;20068;-54
2023/06/09 03:40:15;;;;;;;37.25;7.78;;;21.40;74.90;;;;;;5046562;28;20089;-54
2023/06/09 03:42:40;;;;;;;36.80;7.35;;;21.40;75.10;;;;;;5047139;28;20140;-54
2023/06/09 03:45:06;;;;;;;33.92;7.80;;;21.30;75.10;;;;;;5028087;28;20146;-54
2023/06/09 03:47:32;;;;;;;33.35;8.02;;;21.30;75.20;;;;;;5041886;28;20160;-54
2023/06/09 03:49:57;;;;;;;33.30;7.32;;;21.30;75.40;;;;;;5033105;28;20124;-54
2023/06/09 03:52:26;;;;;;;30.98;7.05;;;21.20;75.40;;;;;;5028208;28;20026;-54
2023/06/09 03:54:51;;;;;;;32.88;7.22;;;21.20;75.60;;;;;;5043331;28;20053;-54
2023/06/09 03:57:17;;;;;;;26.55;7.70;;;21.20;75.60;;;;;;5028178;28;20029;-54
2023/06/09 03:59:42;;;;;;;17.92;6.90;;;21.20;75.60;;;;;;5026489;28;20033;-54
2023/06/09 04:02:08;;;;;;;32.20;6.93;;;21.20;75.60;;;;;;5026684;28;20041;-54
2023/06/09 04:04:33;;;;;;;29.27;7.03;;;21.20;75.70;;;;;;5043195;28;20136;-54
2023/06/09 04:06:59;;;;;;;25.45;6.72;;;21.20;75.70;;;;;;5043165;28;20060;-54
2023/06/09 04:09:26;;;;;;;22.40;6.50;;;21.20;75.70;;;;;;5026676;28;20120;-54
2023/06/09 04:11:51;;;;;;;30.02;7.45;;;21.20;75.80;;;;;;5042458;28;20045;-54
2023/06/09 04:14:17;;;;;;;24.83;6.13;;;21.20;75.80;;;;;;5042415;28;20029;-54
2023/06/09 04:16:43;;;;;;;28.88;6.63;;;21.10;75.70;;;;;;5045939;28;20048;-54
2023/06/09 04:19:08;;;;;;;22.83;6.05;;;21.10;75.80;;;;;;5046579;28;20040;-54
2023/06/09 04:21:35;;;;;;;21.40;6.68;;;21.10;75.90;;;;;;5029963;28;20053;-54
2023/06/09 04:24:01;;;;;;;19.10;6.68;;;21.10;75.90;;;;;;5039544;28;20029;-54
2023/06/09 04:26:27;;;;;;;26.42;6.72;;;21.10;75.90;;;;;;5043528;28;20041;-54
2023/06/09 04:28:53;;;;;;;28.20;6.45;;;21.10;75.90;;;;;;5039386;28;20028;-54
2023/06/09 04:31:23;;;;;;;30.85;6.43;;;21.10;75.90;;;;;;5026009;28;20378;-54
2023/06/09 04:33:51;;;;;;;15.30;5.97;;;21.10;75.90;;;;;;5008452;28;20133;-54
2023/06/09 04:36:17;;;;;;;21.42;5.80;;;21.10;75.90;;;;;;5040908;28;20052;-54
2023/06/09 04:38:45;;;;;;;15.50;6.40;;;21.10;76.10;;;;;;5026107;28;20025;-54
2023/06/09 04:41:11;;;;;;;17.55;6.07;;;21.10;76.30;;;;;;5036780;28;20055;-53
2023/06/09 04:43:39;;;;;;;21.67;6.50;;;21.00;76.70;;;;;;5037075;28;20041;-54
2023/06/09 04:46:05;;;;;;;18.50;5.90;;;21.00;76.80;;;;;;5028073;28;20034;-54
2023/06/09 04:48:33;;;;;;;15.68;6.05;;;21.00;76.90;;;;;;5026256;28;20033;-53
2023/06/09 04:51:02;;;;;;;24.38;5.88;;;21.00;77.00;;;;;;5034142;28;20063;-54
2023/06/09 04:53:29;;;;;;;21.40;5.78;;;21.00;76.90;;;;;;5044093;28;20076;-54
2023/06/09 04:55:55;;;;;;;18.77;5.93;;;21.00;76.80;;;;;;5027083;28;20113;-53
2023/06/09 04:58:21;;;;;;;14.38;5.68;;;21.00;76.50;;;;;;5024392;28;20433;-54
2023/06/09 05:00:47;;;;;;;20.50;5.65;;;21.00;76.60;;;;;;5014842;28;20057;-54
2023/06/09 05:03:13;;;;;;;16.52;5.75;;;21.00;76.60;;;;;;5045494;28;20037;-54
2023/06/09 05:05:41;;;;;;;19.25;5.28;;;21.00;76.90;;;;;;5044240;28;20033;-54
2023/06/09 05:08:08;;;;;;;14.15;5.43;;;20.90;76.90;;;;;;5045704;28;20094;-54
2023/06/09 05:10:33;;;;;;;16.02;5.90;;;20.90;76.90;;;;;;5043224;28;20044;-54
2023/06/09 05:12:59;;;;;;;10.95;5.20;;;20.90;77.00;;;;;;5042725;28;20040;-54
2023/06/09 05:15:26;;;;;;;20.65;5.68;;;20.90;77.00;;;;;;4996488;28;1089043;-54
2023/06/09 05:17:52;;;;;;;14.60;5.18;;;20.90;77.00;;;;;;5036881;28;20052;-54
2023/06/09 05:20:18;;;;;;;12.35;5.82;;;20.90;77.10;;;;;;5025863;28;20041;-54
2023/06/09 05:22:44;;;;;;;16.40;5.63;;;20.90;76.90;;;;;;5027180;28;20041;-54
2023/06/09 05:25:13;;;;;;;17.08;5.93;;;20.90;76.90;;;;;;5026969;28;20030;-54
2023/06/09 05:27:38;;;;;;;18.63;5.53;;;20.90;76.80;;;;;;5025037;28;20032;-54
2023/06/09 05:30:05;;;;;;;14.93;5.05;;;20.90;76.70;;;;;;5026734;28;20125;-54
2023/06/09 05:32:31;;;;;;;15.63;5.32;;;20.90;76.80;;;;;;5024702;28;20101;-54
2023/06/09 05:34:56;;;;;;;16.52;5.78;;;20.90;76.80;;;;;;5025044;28;20093;-54
2023/06/09 05:37:22;;;;;;;16.58;5.20;;;20.90;76.70;;;;;;5045262;28;20069;-54
2023/06/09 05:39:47;;;;;;;16.83;5.72;;;20.90;76.70;;;;;;5044057;28;20048;-54
2023/06/09 05:42:13;;;;;;;13.20;5.82;;;20.80;76.70;;;;;;5026556;28;20041;-54
2023/06/09 05:44:39;;;;;;;13.85;5.22;;;20.80;76.70;;;;;;5031750;28;20061;-54
2023/06/09 05:47:04;;;;;;;15.40;5.25;;;20.80;76.90;;;;;;5007663;28;20058;-54
2023/06/09 05:49:30;;;;;;;12.98;5.47;;;20.80;76.90;;;;;;5025537;28;20068;-53
2023/06/09 05:51:55;;;;;;;12.15;5.20;;;20.80;77.00;;;;;;5028026;28;20038;-54
2023/06/09 05:54:21;;;;;;;10.90;5.45;;;20.80;77.00;;;;;;5025448;28;20030;-54
2023/06/09 05:56:48;;;;;;;10.38;5.07;;;20.80;77.10;;;;;;5039224;28;20044;-54
2023/06/09 05:59:14;;;;;;;9.30;4.55;;;20.80;77.10;;;;;;5024883;28;20029;-54
2023/06/09 06:01:41;;;;;;;14.13;5.68;;;20.80;77.20;;;;;;5036647;28;20390;-54
2023/06/09 06:04:07;;;;;;;13.73;5.10;;;20.80;77.30;;;;;;5054239;28;20025;-54
2023/06/09 06:06:33;;;;;;;11.95;5.45;;;20.80;77.40;;;;;;5045325;28;20315;-54
2023/06/09 06:08:58;;;;;;;12.85;5.40;;;20.80;77.50;;;;;;5046022;28;20469;-54
2023/06/09 06:11:25;;;;;;;14.98;5.20;;;20.80;77.50;;;;;;5043468;28;20047;-54
2023/06/09 06:13:50;;;;;;;15.40;6.22;;;20.80;77.50;;;;;;5035871;28;20124;-54
2023/06/09 06:16:16;;;;;;;11.73;5.30;;;20.80;77.50;;;;;;5036098;28;20033;-54
2023/06/09 06:18:42;;;;;;;9.70;5.53;;;20.80;77.40;;;;;;5037172;28;20502;-54
2023/06/09 06:21:07;;;;;;;11.98;5.65;;;20.80;77.50;;;;;;5031133;28;20026;-54
2023/06/09 06:23:33;;;;;;;13.35;5.40;;;20.80;77.60;;;;;;5031041;28;20049;-54
2023/06/09 06:25:59;;;;;;;16.73;5.38;;;20.80;77.80;;;;;;5031952;28;20039;-54
2023/06/09 06:28:24;;;;;;;16.92;5.93;;;20.80;77.90;;;;;;5024627;28;20144;-54
2023/06/09 06:30:50;;;;;;;13.23;5.05;;;20.80;77.90;;;;;;5027905;28;20046;-54
2023/06/09 06:33:16;;;;;;;12.13;5.40;;;20.80;77.90;;;;;;5051223;28;20025;-54
2023/06/09 06:35:42;;;;;;;15.57;5.03;;;20.80;77.90;;;;;;5049913;28;20041;-54
2023/06/09 06:38:07;;;;;;;16.40;5.63;;;20.80;77.90;;;;;;5042767;28;20033;-54
2023/06/09 06:40:33;;;;;;;9.13;5.57;;;20.80;77.90;;;;;;5044587;28;20116;-54
2023/06/09 06:42:58;;;;;;;9.10;5.00;;;20.80;77.90;;;;;;5043060;28;20026;-54
2023/06/09 06:45:26;;;;;;;8.52;5.25;;;20.80;77.90;;;;;;5038156;28;20114;-54
2023/06/09 06:47:53;;;;;;;9.20;4.53;;;20.80;77.80;;;;;;5038938;28;20068;-54
2023/06/09 06:50:18;;;;;;;8.15;5.20;;;20.80;77.70;;;;;;5042810;28;20083;-54
2023/06/09 06:52:45;;;;;;;10.85;5.35;;;20.80;77.70;;;;;;5024743;28;20038;-55
2023/06/09 06:55:11;;;;;;;11.48;5.60;;;20.80;77.60;;;;;;5023184;28;20034;-54
2023/06/09 06:57:37;;;;;;;10.68;5.72;;;20.80;77.60;;;;;;5026120;28;20041;-54
2023/06/09 07:00:12;;;;;;;9.57;5.13;;;20.90;77.80;;;;;;5023885;28;20087;-54
2023/06/09 07:02:38;;;;;;;20.70;5.83;;;20.80;77.80;;;;;;5037608;28;20109;-54
2023/06/09 07:05:06;;;;;;;13.52;6.40;;;20.90;78.30;;;;;;5031978;28;20017;-54
2023/06/09 07:07:32;;;;;;;25.13;7.13;;;20.90;78.10;;;;;;5030216;28;20025;-54
2023/06/09 07:09:57;;;;;;;27.55;7.40;;;20.90;78.20;;;;;;5034865;28;20056;-54
2023/06/09 07:12:23;;;;;;;37.00;7.35;;;20.90;78.00;;;;;;5027743;28;20064;-54
2023/06/09 07:14:48;;;;;;;35.50;8.27;;;20.90;78.10;;;;;;5033213;28;20026;-54
2023/06/09 07:17:14;;;;;;;41.90;8.40;;;20.90;77.90;;;;;;5033775;28;20545;-54
2023/06/09 07:19:39;;;;;;;37.53;9.07;;;20.90;78.00;;;;;;5044816;28;20033;-54
2023/06/09 07:22:05;;;;;;;38.97;8.38;;;20.90;78.00;;;;;;5026187;28;20102;-54
2023/06/09 07:24:31;;;;;;;40.20;8.82;;;20.90;77.90;;;;;;5039882;28;20065;-54
2023/06/09 07:26:56;;;;;;;55.35;9.88;;;20.90;78.80;;;;;;5029900;28;20071;-54
2023/06/09 07:29:22;;;;;;;55.00;9.57;;;21.00;78.10;;;;;;5039471;28;20029;-54
2023/06/09 07:31:47;;;;;;;62.35;10.98;;;21.00;78.00;;;;;;5035175;28;20036;-54
2023/06/09 07:34:14;;;;;;;51.00;10.02;;;21.00;78.10;;;;;;5042112;28;20025;-54
2023/06/09 07:36:40;;;;;;;59.92;10.55;;;21.00;78.10;;;;;;5050752;28;20026;-54
2023/06/09 07:39:06;;;;;;;48.10;9.73;;;21.00;78.20;;;;;;5026739;28;20038;-54
2023/06/09 07:41:31;;;;;;;49.47;10.50;;;21.00;79.00;;;;;;5030993;28;20036;-54
2023/06/09 07:43:58;;;;;;;53.95;10.30;;;21.00;78.30;;;;;;5052681;28;20049;-54
2023/06/09 07:46:23;;;;;;;75.05;11.82;;;21.00;78.40;;;;;;5025149;28;20030;-54
2023/06/09 07:48:49;;;;;;;88.32;12.50;;;21.00;79.50;;;;;;5041067;28;20036;-54
2023/06/09 07:51:16;;;;;;;65.47;11.80;;;21.00;80.40;;;;;;5036075;28;20037;-54
2023/06/09 07:53:42;;;;;;;72.60;11.93;;;21.00;80.30;;;;;;5043618;28;20034;-54
2023/06/09 07:56:08;;;;;;;64.13;11.23;;;21.00;80.70;;;;;;5041377;28;20462;-54
2023/06/09 07:58:33;;;;;;;59.47;11.38;;;21.00;80.90;;;;;;5046070;28;20030;-55
2023/06/09 08:00:59;;;;;;;64.40;11.82;;;21.00;80.70;;;;;;5050529;28;20119;-54
2023/06/09 08:03:25;;;;;;;82.00;12.82;;;21.00;81.00;;;;;;5039713;28;20041;-54
2023/06/09 08:05:50;;;;;;;63.95;12.45;;;21.00;81.20;;;;;;5035575;28;20025;-54
2023/06/09 08:08:16;;;;;;;43.40;11.63;;;21.00;81.00;;;;;;5031183;28;20088;-54
2023/06/09 08:10:42;;;;;;;92.80;14.23;;;21.00;81.00;;;;;;5044468;28;20105;-54
2023/06/09 08:13:08;;;;;;;133.70;16.63;;;21.00;81.10;;;;;;5029830;28;20064;-54
2023/06/09 08:15:33;;;;;;;98.65;14.50;;;21.10;81.30;;;;;;5040937;28;20498;-54
2023/06/09 08:17:59;;;;;;;94.20;13.65;;;21.10;80.80;;;;;;5031919;28;20025;-54
2023/06/09 08:20:24;;;;;;;98.00;15.60;;;21.10;80.80;;;;;;5050521;28;20029;-54
2023/06/09 08:22:50;;;;;;;115.97;18.00;;;21.10;81.00;;;;;;5025711;28;20454;-54
2023/06/09 08:25:16;;;;;;;127.13;18.65;;;21.20;81.10;;;;;;5029752;28;20031;-54
2023/06/09 08:27:41;;;;;;;141.73;17.63;;;21.20;80.80;;;;;;5031510;28;20025;-54
2023/06/09 08:30:08;;;;;;;135.50;18.08;;;21.20;80.70;;;;;;5032040;28;20109;-54
2023/06/09 08:32:33;;;;;;;125.63;17.30;;;21.20;80.50;;;;;;5042896;28;20044;-55
2023/06/09 08:35:03;;;;;;;121.75;17.77;;;21.30;80.70;;;;;;5038249;28;20022;-55
2023/06/09 08:37:30;;;;;;;99.60;15.85;;;21.30;81.00;;;;;;5026957;28;20045;-54
2023/06/09 08:39:57;;;;;;;134.07;17.30;;;21.30;80.80;;;;;;5024312;28;20092;-54
2023/06/09 08:42:25;;;;;;;105.68;15.75;;;21.30;80.60;;;;;;5042535;28;20037;-54
2023/06/09 08:45:05;;;;;;;109.18;16.85;;;21.40;80.20;;;;;;5050351;28;20029;-53
2023/06/09 08:47:32;;;;;;;113.63;16.70;;;21.40;80.20;;;;;;5021688;28;20025;-54
2023/06/09 08:49:59;;;;;;;95.80;14.65;;;21.40;80.20;;;;;;5048174;28;20215;-55
2023/06/09 08:52:27;;;;;;;152.80;19.15;;;21.40;80.20;;;;;;5028163;28;20029;-54
2023/06/09 08:54:56;;;;;;;147.48;19.52;;;21.50;80.10;;;;;;5045341;28;20030;-55
2023/06/09 08:57:21;;;;;;;140.68;17.75;;;21.50;79.80;;;;;;5035966;28;20037;-55
2023/06/09 08:59:50;;;;;;;98.10;14.63;;;21.50;79.70;;;;;;5023431;28;20052;-54
2023/06/09 09:02:16;;;;;;;89.32;13.88;;;21.60;79.80;;;;;;5046604;28;20033;-55
2023/06/09 09:04:42;;;;;;;99.78;14.65;;;21.60;79.60;;;;;;5047444;28;20026;-54
2023/06/09 09:07:08;;;;;;;76.53;12.82;;;21.60;79.30;;;;;;5035389;28;20089;-54
2023/06/09 09:09:34;;;;;;;90.90;12.25;;;21.60;79.00;;;;;;5044638;28;20085;-54
2023/06/09 09:12:01;;;;;;;77.30;12.70;;;21.70;78.90;;;;;;5043946;28;20033;-55
2023/06/09 09:14:26;;;;;;;87.50;14.50;;;21.70;78.70;;;;;;5043014;28;20037;-54
2023/06/09 09:16:52;;;;;;;87.50;13.27;;;21.70;78.50;;;;;;5033122;28;20036;-55
2023/06/09 09:19:28;;;;;;;88.13;12.70;;;21.80;78.40;;;;;;5041162;28;20029;-55
2023/06/09 09:21:56;;;;;;;77.72;13.02;;;21.80;78.30;;;;;;5039053;28;20039;-53
2023/06/09 09:24:31;;;;;;;92.20;12.13;;;21.90;78.20;;;;;;5042512;28;20362;-55
2023/06/09 09:26:57;;;;;;;82.20;12.65;;;21.90;78.10;;;;;;5029402;28;20034;-55
2023/06/09 09:29:26;;;;;;;78.32;12.10;;;21.90;78.00;;;;;;5043416;28;20101;-54
2023/06/09 09:31:57;;;;;;;61.70;12.27;;;21.90;78.00;;;;;;5042044;28;20034;-55
2023/06/09 09:34:25;;;;;;;77.82;13.13;;;21.90;77.90;;;;;;5040086;28;20079;-55
2023/06/09 09:36:54;;;;;;;78.20;12.18;;;22.00;77.80;;;;;;5026031;28;20035;-55
2023/06/09 09:39:20;;;;;;;71.05;11.15;;;22.00;77.60;;;;;;5043439;28;20446;-55
2023/06/09 09:42:07;;;;;;;65.45;10.00;;;22.00;77.50;;;;;;5040484;28;20026;-55
2023/06/09 09:44:43;;;;;;;70.45;10.68;;;22.10;77.30;;;;;;5039619;28;20111;-55
2023/06/09 09:47:12;;;;;;;64.72;11.80;;;22.20;77.30;;;;;;5011146;28;20052;-55
2023/06/09 09:49:37;;;;;;;57.63;10.00;;;22.20;77.10;;;;;;5037736;28;20032;-54
2023/06/09 09:52:06;;;;;;;69.43;10.30;;;22.30;76.90;;;;;;5012529;28;20045;-55
2023/06/09 09:54:32;;;;;;;75.57;10.65;;;22.30;76.70;;;;;;5034411;28;20109;-55
2023/06/09 09:56:58;;;;;;;54.55;10.15;;;22.40;76.40;;;;;;5054639;28;20026;-55
2023/06/09 09:59:24;;;;;;;72.72;12.75;;;22.40;76.20;;;;;;5037726;28;20057;-55
2023/06/09 10:01:50;;;;;;;65.25;11.95;;;22.40;76.00;;;;;;5040293;28;20083;-55
2023/06/09 10:04:15;;;;;;;58.28;11.00;;;22.40;75.70;;;;;;5028402;28;20051;-55
2023/06/09 10:06:43;;;;;;;64.53;11.80;;;22.50;75.20;;;;;;5040417;28;20029;-55
2023/06/09 10:09:09;;;;;;;97.22;13.65;;;22.50;75.10;;;;;;5038659;28;20028;-55
2023/06/09 10:11:34;;;;;;;133.10;15.70;;;22.60;74.90;;;;;;5042966;28;20033;-55
2023/06/09 10:14:00;;;;;;;138.30;15.93;;;22.60;74.80;;;;;;5042713;28;20079;-55
2023/06/09 10:16:27;;;;;;;111.28;15.02;;;22.70;75.10;;;;;;5043975;28;20103;-55
2023/06/09 10:18:52;;;;;;;109.78;14.98;;;22.70;74.70;;;;;;5020920;28;20030;-55
2023/06/09 10:21:18;;;;;;;109.63;16.80;;;22.70;74.50;;;;;;5031911;28;20048;-55
2023/06/09 10:23:43;;;;;;;80.28;14.20;;;22.80;74.40;;;;;;5036615;28;20101;-55
2023/06/09 10:26:10;;;;;;;94.78;14.00;;;22.90;74.50;;;;;;5056755;28;20192;-55
2023/06/09 10:28:37;;;;;;;99.93;14.43;;;22.90;74.30;;;;;;5045604;28;20033;-55
2023/06/09 10:31:02;;;;;;;101.82;15.90;;;22.90;74.20;;;;;;5046969;28;20039;-55
2023/06/09 10:33:31;;;;;;;78.38;13.57;;;22.90;74.20;;;;;;5039640;28;20045;-55
2023/06/09 10:35:58;;;;;;;82.18;14.75;;;23.00;74.20;;;;;;5031984;28;20030;-55
2023/06/09 10:38:28;;;;;;;120.43;16.30;;;23.10;74.10;;;;;;5041386;28;20056;-55
2023/06/09 10:41:33;;;;;;;82.15;13.73;;;23.10;74.00;;;;;;5040489;28;20041;-55
2023/06/09 10:44:19;;;;;;;90.80;13.82;;;23.30;74.00;;;;;;5027756;28;20030;-55
2023/06/09 10:46:45;;;;;;;100.78;16.23;;;23.40;71.70;;;;;;5034018;28;20037;-55
2023/06/09 10:49:34;;;;;;;106.50;13.52;;;23.40;71.90;;;;;;5033029;28;20064;-55
2023/06/09 10:52:00;;;;;;;81.82;12.18;;;23.50;70.20;;;;;;5031764;28;20030;-55
2023/06/09 10:54:26;;;;;;;87.45;13.15;;;23.60;70.40;;;;;;5050318;28;20422;-55
2023/06/09 10:57:03;;;;;;;89.78;13.70;;;23.70;69.50;;;;;;5036619;28;20112;-55
2023/06/09 10:59:30;;;;;;;100.95;14.90;;;23.80;69.20;;;;;;5034765;28;20419;-55
2023/06/09 11:02:05;;;;;;;74.80;12.35;;;23.90;69.40;;;;;;5027406;28;20455;-55
2023/06/09 11:04:45;;;;;;;120.53;14.17;;;24.00;68.50;;;;;;5052615;28;20092;-55
2023/06/09 11:07:12;;;;;;;102.75;15.82;;;24.10;68.30;;;;;;5038088;28;20037;-55
2023/06/09 11:09:38;;;;;;;86.07;12.05;;;24.20;67.60;;;;;;5034772;28;20091;-55
2023/06/09 11:12:05;;;;;;;121.57;15.65;;;24.30;66.90;;;;;;5030463;28;20030;-55
2023/06/09 11:14:46;;;;;;;125.20;15.05;;;24.30;66.50;;;;;;5033509;28;20040;-55
2023/06/09 11:17:25;;;;;;;137.05;17.77;;;24.50;66.30;;;;;;5033947;28;20037;-55
2023/06/09 11:20:06;;;;;;;77.05;14.23;;;24.60;66.00;;;;;;5040284;28;20049;-54
2023/06/09 11:22:40;;;;;;;113.38;14.70;;;24.60;65.20;;;;;;5039749;28;20038;-55
2023/06/09 11:25:27;;;;;;;107.37;15.80;;;24.70;64.70;;;;;;5035157;28;20029;-55
2023/06/09 11:27:56;;;;;;;111.30;15.52;;;24.80;65.10;;;;;;5036186;28;20172;-55
2023/06/09 11:30:23;;;;;;;120.20;16.58;;;24.90;64.20;;;;;;5044361;28;20074;-55
2023/06/09 11:32:56;;;;;;;108.22;13.82;;;25.00;64.10;;;;;;5036699;28;20101;-55
2023/06/09 11:35:28;;;;;;;99.10;13.70;;;25.10;63.40;;;;;;5035621;28;20029;-55
2023/06/09 11:37:58;;;;;;;98.22;14.07;;;25.10;63.10;;;;;;5044963;28;20021;-53
2023/06/09 11:40:24;;;;;;;94.45;12.63;;;25.20;63.10;;;;;;5023613;28;20042;-55
2023/06/09 11:42:50;;;;;;;73.30;11.65;;;25.30;62.50;;;;;;5039385;28;20048;-55
2023/06/09 11:45:15;;;;;;;81.30;10.98;;;25.40;62.60;;;;;;5048046;28;20033;-55
2023/06/09 11:47:41;;;;;;;57.85;11.10;;;25.50;62.40;;;;;;5029629;28;20025;-55
2023/06/09 11:50:14;;;;;;;87.35;13.57;;;25.60;61.70;;;;;;5037064;28;20025;-55
2023/06/09 11:52:44;;;;;;;65.95;10.95;;;25.70;62.00;;;;;;5054563;28;20049;-55
2023/06/09 11:55:13;;;;;;;54.55;9.25;;;25.80;61.10;;;;;;5047656;28;20042;-55
2023/06/09 11:57:39;;;;;;;80.53;10.43;;;25.90;61.00;;;;;;5026034;28;20045;-55
2023/06/09 12:00:12;;;;;;;57.72;9.10;;;26.00;61.60;;;;;;5045337;28;20087;-55
2023/06/09 12:02:47;;;;;;;49.72;8.80;;;26.10;60.60;;;;;;5030768;28;20030;-55
2023/06/09 12:05:12;;;;;;;52.65;8.30;;;26.20;59.90;;;;;;5043581;28;20060;-55
2023/06/09 12:07:40;;;;;;;40.03;8.35;;;26.20;59.60;;;;;;5040959;28;20313;-55
2023/06/09 12:10:06;;;;;;;43.45;8.23;;;26.30;59.90;;;;;;5047637;28;20025;-55
2023/06/09 12:12:44;;;;;;;33.38;6.40;;;26.40;59.90;;;;;;5025373;28;20025;-55
2023/06/09 12:15:11;;;;;;;47.80;7.80;;;26.50;58.70;;;;;;5038743;28;20041;-55
2023/06/09 12:17:36;;;;;;;59.80;9.07;;;26.50;58.90;;;;;;5023771;28;20042;-55
2023/06/09 12:20:26;;;;;;;54.05;8.18;;;26.60;60.00;;;;;;5048244;28;20029;-55
2023/06/09 12:22:53;;;;;;;72.63;10.20;;;26.70;59.20;;;;;;5062780;28;20105;-55
2023/06/09 12:25:28;;;;;;;67.53;10.38;;;26.80;58.60;;;;;;5040704;28;20041;-55
2023/06/09 12:27:55;;;;;;;59.85;8.95;;;26.90;58.50;;;;;;5040156;28;20394;-55
2023/06/09 12:30:38;;;;;;;59.33;8.65;;;27.00;58.30;;;;;;5038594;28;20486;-55
2023/06/09 12:33:10;;;;;;;62.35;8.70;;;27.10;58.50;;;;;;5031071;28;20041;-55
2023/06/09 12:35:40;;;;;;;65.13;9.32;;;27.20;58.00;;;;;;5020583;28;20049;-55